sensor_id;sensor_type;location;lat;lon;timestamp;P1;durP1;ratioP1;P2;durP2;ratioP2
8580;SDS011;4328;48.622;9.230;2022-09-09T00:01:40;2.13;;;1.20;;
8580;SDS011;4328;48.622;9.230;2022-09-09T00:04:17;3.30;;;1.20;;
8580;SDS011;4328;48.622;9.230;2022-09-09T00:06:55;4.77;;;1.23;;
8580;SDS011;4328;48.622;9.230;2022-09-09T00:09:29;2.37;;;0.93;;
8580;SDS011;4328;48.622;9.230;2022-09-09T00:12:04;1.20;;;1.00;;
8580;SDS011;4328;48.622;9.230;2022-09-09T00:14:39;1.70;;;0.80;;
8580;SDS011;4328;48.622;9.230;2022-09-09T00:17:14;2.83;;;1.23;;
8580;SDS011;4328;48.622;9.230;2022-09-09T00:19:59;1.27;;;0.83;;
8580;SDS011;4328;48.622;9.230;2022-09-09T00:22:32;1.83;;;0.97;;
8580;SDS011;4328;48.622;9.230;2022-09-09T00:25:01;2.80;;;0.80;;
8580;SDS011;4328;48.622;9.230;2022-09-09T00:27:37;2.50;;;0.97;;
8580;SDS011;4328;48.622;9.230;2022-09-09T00:30:19;6.33;;;1.30;;
8580;SDS011;4328;48.622;9.230;2022-09-09T00:32:47;2.53;;;0.80;;
8580;SDS011;4328;48.622;9.230;2022-09-09T00:35:16;3.80;;;0.90;;
8580;SDS011;4328;48.622;9.230;2022-09-09T00:37:47;2.43;;;0.90;;
8580;SDS011;4328;48.622;9.230;2022-09-09T00:40:18;2.57;;;0.80;;
8580;SDS011;4328;48.622;9.230;2022-09-09T00:42:52;2.80;;;1.10;;
8580;SDS011;4328;48.622;9.230;2022-09-09T00:45:37;2.23;;;0.80;;
8580;SDS011;4328;48.622;9.230;2022-09-09T00:48:18;3.47;;;1.20;;
8580;SDS011;4328;48.622;9.230;2022-09-09T00:50:49;3.40;;;1.10;;
8580;SDS011;4328;48.622;9.230;2022-09-09T00:53:24;2.20;;;1.13;;
8580;SDS011;4328;48.622;9.230;2022-09-09T00:56:05;1.80;;;0.97;;
8580;SDS011;4328;48.622;9.230;2022-09-09T00:58:38;0.90;;;0.80;;
8580;SDS011;4328;48.622;9.230;2022-09-09T01:01:07;2.50;;;1.10;;
8580;SDS011;4328;48.622;9.230;2022-09-09T01:03:38;2.83;;;1.03;;
8580;SDS011;4328;48.622;9.230;2022-09-09T01:06:15;5.23;;;1.40;;
8580;SDS011;4328;48.622;9.230;2022-09-09T01:08:53;2.60;;;1.10;;
8580;SDS011;4328;48.622;9.230;2022-09-09T01:11:32;2.47;;;1.10;;
8580;SDS011;4328;48.622;9.230;2022-09-09T01:14:11;2.47;;;1.10;;
8580;SDS011;4328;48.622;9.230;2022-09-09T01:16:46;1.33;;;1.00;;
8580;SDS011;4328;48.622;9.230;2022-09-09T01:19:15;4.57;;;1.00;;
8580;SDS011;4328;48.622;9.230;2022-09-09T01:21:54;3.60;;;1.13;;
8580;SDS011;4328;48.622;9.230;2022-09-09T01:24:30;4.90;;;1.10;;
8580;SDS011;4328;48.622;9.230;2022-09-09T01:27:06;2.87;;;0.90;;
8580;SDS011;4328;48.622;9.230;2022-09-09T01:29:35;1.90;;;0.93;;
8580;SDS011;4328;48.622;9.230;2022-09-09T01:32:35;2.33;;;1.03;;
8580;SDS011;4328;48.622;9.230;2022-09-09T01:35:05;3.27;;;0.90;;
8580;SDS011;4328;48.622;9.230;2022-09-09T01:37:34;4.87;;;1.60;;
8580;SDS011;4328;48.622;9.230;2022-09-09T01:40:01;1.30;;;0.80;;
8580;SDS011;4328;48.622;9.230;2022-09-09T01:42:29;3.97;;;0.90;;
8580;SDS011;4328;48.622;9.230;2022-09-09T01:44:56;0.70;;;0.70;;
8580;SDS011;4328;48.622;9.230;2022-09-09T01:47:23;2.93;;;1.07;;
8580;SDS011;4328;48.622;9.230;2022-09-09T01:49:50;1.40;;;0.93;;
8580;SDS011;4328;48.622;9.230;2022-09-09T01:52:17;2.70;;;1.00;;
8580;SDS011;4328;48.622;9.230;2022-09-09T01:54:43;3.70;;;1.10;;
8580;SDS011;4328;48.622;9.230;2022-09-09T01:57:11;1.23;;;0.90;;
8580;SDS011;4328;48.622;9.230;2022-09-09T01:59:50;0.97;;;0.90;;
8580;SDS011;4328;48.622;9.230;2022-09-09T02:02:26;2.17;;;1.00;;
8580;SDS011;4328;48.622;9.230;2022-09-09T02:04:57;2.40;;;1.00;;
8580;SDS011;4328;48.622;9.230;2022-09-09T02:07:34;5.73;;;1.00;;
8580;SDS011;4328;48.622;9.230;2022-09-09T02:10:07;2.03;;;1.00;;
8580;SDS011;4328;48.622;9.230;2022-09-09T02:12:38;3.50;;;1.10;;
8580;SDS011;4328;48.622;9.230;2022-09-09T02:15:14;2.70;;;1.20;;
8580;SDS011;4328;48.622;9.230;2022-09-09T02:17:48;4.13;;;1.20;;
8580;SDS011;4328;48.622;9.230;2022-09-09T02:20:18;4.63;;;0.93;;
8580;SDS011;4328;48.622;9.230;2022-09-09T02:22:46;2.80;;;1.00;;
8580;SDS011;4328;48.622;9.230;2022-09-09T02:25:18;3.63;;;1.10;;
8580;SDS011;4328;48.622;9.230;2022-09-09T02:27:47;3.70;;;0.97;;
8580;SDS011;4328;48.622;9.230;2022-09-09T02:30:18;3.30;;;1.10;;
8580;SDS011;4328;48.622;9.230;2022-09-09T02:32:45;3.57;;;1.13;;
8580;SDS011;4328;48.622;9.230;2022-09-09T02:35:17;4.37;;;1.20;;
8580;SDS011;4328;48.622;9.230;2022-09-09T02:37:46;2.00;;;1.00;;
8580;SDS011;4328;48.622;9.230;2022-09-09T02:40:13;1.17;;;1.00;;
8580;SDS011;4328;48.622;9.230;2022-09-09T02:42:41;2.37;;;1.07;;
8580;SDS011;4328;48.622;9.230;2022-09-09T02:45:09;2.80;;;1.03;;
8580;SDS011;4328;48.622;9.230;2022-09-09T02:47:40;3.27;;;1.00;;
8580;SDS011;4328;48.622;9.230;2022-09-09T02:50:15;2.03;;;0.80;;
8580;SDS011;4328;48.622;9.230;2022-09-09T02:52:47;2.20;;;0.90;;
8580;SDS011;4328;48.622;9.230;2022-09-09T02:55:24;2.17;;;1.00;;
8580;SDS011;4328;48.622;9.230;2022-09-09T02:57:58;3.03;;;1.00;;
8580;SDS011;4328;48.622;9.230;2022-09-09T03:00:27;2.63;;;1.10;;
8580;SDS011;4328;48.622;9.230;2022-09-09T03:02:55;2.50;;;0.97;;
8580;SDS011;4328;48.622;9.230;2022-09-09T03:05:22;3.87;;;0.90;;
8580;SDS011;4328;48.622;9.230;2022-09-09T03:07:49;3.70;;;1.00;;
8580;SDS011;4328;48.622;9.230;2022-09-09T03:10:16;2.93;;;1.37;;
8580;SDS011;4328;48.622;9.230;2022-09-09T03:12:43;1.73;;;0.93;;
8580;SDS011;4328;48.622;9.230;2022-09-09T03:15:09;4.17;;;1.00;;
8580;SDS011;4328;48.622;9.230;2022-09-09T03:17:36;3.87;;;1.00;;
8580;SDS011;4328;48.622;9.230;2022-09-09T03:20:05;1.83;;;0.87;;
8580;SDS011;4328;48.622;9.230;2022-09-09T03:22:33;2.33;;;1.00;;
8580;SDS011;4328;48.622;9.230;2022-09-09T03:24:59;5.77;;;1.00;;
8580;SDS011;4328;48.622;9.230;2022-09-09T03:27:27;3.40;;;1.00;;
8580;SDS011;4328;48.622;9.230;2022-09-09T03:29:54;2.80;;;1.10;;
8580;SDS011;4328;48.622;9.230;2022-09-09T03:32:21;4.23;;;1.17;;
8580;SDS011;4328;48.622;9.230;2022-09-09T03:34:50;3.93;;;1.00;;
8580;SDS011;4328;48.622;9.230;2022-09-09T03:37:19;3.53;;;0.97;;
8580;SDS011;4328;48.622;9.230;2022-09-09T03:39:45;2.00;;;1.00;;
8580;SDS011;4328;48.622;9.230;2022-09-09T03:42:12;2.30;;;1.13;;
8580;SDS011;4328;48.622;9.230;2022-09-09T03:44:43;5.03;;;1.17;;
8580;SDS011;4328;48.622;9.230;2022-09-09T03:47:14;3.50;;;1.00;;
8580;SDS011;4328;48.622;9.230;2022-09-09T03:49:41;2.33;;;1.00;;
8580;SDS011;4328;48.622;9.230;2022-09-09T03:52:08;1.63;;;1.30;;
8580;SDS011;4328;48.622;9.230;2022-09-09T03:54:36;2.77;;;1.10;;
8580;SDS011;4328;48.622;9.230;2022-09-09T03:57:03;3.67;;;1.10;;
8580;SDS011;4328;48.622;9.230;2022-09-09T03:59:31;2.63;;;1.00;;
8580;SDS011;4328;48.622;9.230;2022-09-09T04:01:57;3.97;;;1.30;;
8580;SDS011;4328;48.622;9.230;2022-09-09T04:04:24;3.37;;;0.93;;
8580;SDS011;4328;48.622;9.230;2022-09-09T04:06:52;6.17;;;1.10;;
8580;SDS011;4328;48.622;9.230;2022-09-09T04:09:18;2.57;;;1.30;;
8580;SDS011;4328;48.622;9.230;2022-09-09T04:11:46;4.63;;;1.20;;
8580;SDS011;4328;48.622;9.230;2022-09-09T04:14:14;1.80;;;1.13;;
8580;SDS011;4328;48.622;9.230;2022-09-09T04:16:41;1.73;;;0.80;;
8580;SDS011;4328;48.622;9.230;2022-09-09T04:19:09;3.20;;;1.00;;
8580;SDS011;4328;48.622;9.230;2022-09-09T04:21:37;2.83;;;1.00;;
8580;SDS011;4328;48.622;9.230;2022-09-09T04:24:05;2.60;;;0.90;;
8580;SDS011;4328;48.622;9.230;2022-09-09T04:26:32;3.70;;;1.03;;
8580;SDS011;4328;48.622;9.230;2022-09-09T04:29:00;2.77;;;1.17;;
8580;SDS011;4328;48.622;9.230;2022-09-09T04:31:27;1.97;;;1.03;;
8580;SDS011;4328;48.622;9.230;2022-09-09T04:33:54;2.27;;;1.20;;
8580;SDS011;4328;48.622;9.230;2022-09-09T04:36:20;4.60;;;1.40;;
8580;SDS011;4328;48.622;9.230;2022-09-09T04:38:47;3.53;;;1.23;;
8580;SDS011;4328;48.622;9.230;2022-09-09T04:41:15;4.83;;;1.07;;
8580;SDS011;4328;48.622;9.230;2022-09-09T04:43:42;4.43;;;1.20;;
8580;SDS011;4328;48.622;9.230;2022-09-09T04:46:10;2.23;;;1.20;;
8580;SDS011;4328;48.622;9.230;2022-09-09T04:48:37;2.53;;;1.00;;
8580;SDS011;4328;48.622;9.230;2022-09-09T04:51:04;3.63;;;1.20;;
8580;SDS011;4328;48.622;9.230;2022-09-09T04:53:33;5.27;;;1.30;;
8580;SDS011;4328;48.622;9.230;2022-09-09T04:56:03;2.37;;;0.97;;
8580;SDS011;4328;48.622;9.230;2022-09-09T04:58:32;3.07;;;1.07;;
8580;SDS011;4328;48.622;9.230;2022-09-09T05:01:02;3.20;;;1.20;;
8580;SDS011;4328;48.622;9.230;2022-09-09T05:03:31;3.40;;;1.30;;
8580;SDS011;4328;48.622;9.230;2022-09-09T05:06:02;4.70;;;1.30;;
8580;SDS011;4328;48.622;9.230;2022-09-09T05:08:33;7.57;;;1.70;;
8580;SDS011;4328;48.622;9.230;2022-09-09T05:11:00;3.27;;;1.20;;
8580;SDS011;4328;48.622;9.230;2022-09-09T05:13:27;1.57;;;1.20;;
8580;SDS011;4328;48.622;9.230;2022-09-09T05:15:54;4.47;;;1.03;;
8580;SDS011;4328;48.622;9.230;2022-09-09T05:18:21;1.53;;;1.00;;
8580;SDS011;4328;48.622;9.230;2022-09-09T05:20:49;2.53;;;1.20;;
8580;SDS011;4328;48.622;9.230;2022-09-09T05:23:16;2.77;;;1.00;;
8580;SDS011;4328;48.622;9.230;2022-09-09T05:25:43;2.67;;;1.10;;
8580;SDS011;4328;48.622;9.230;2022-09-09T05:28:11;2.53;;;1.37;;
8580;SDS011;4328;48.622;9.230;2022-09-09T05:30:38;4.20;;;1.30;;
8580;SDS011;4328;48.622;9.230;2022-09-09T05:33:04;2.67;;;1.17;;
8580;SDS011;4328;48.622;9.230;2022-09-09T05:35:31;2.93;;;1.13;;
8580;SDS011;4328;48.622;9.230;2022-09-09T05:38:00;3.40;;;1.47;;
8580;SDS011;4328;48.622;9.230;2022-09-09T05:40:26;1.67;;;0.93;;
8580;SDS011;4328;48.622;9.230;2022-09-09T05:42:53;3.30;;;1.10;;
8580;SDS011;4328;48.622;9.230;2022-09-09T05:45:20;3.13;;;1.00;;
8580;SDS011;4328;48.622;9.230;2022-09-09T05:47:50;1.93;;;1.00;;
8580;SDS011;4328;48.622;9.230;2022-09-09T05:50:18;1.87;;;1.10;;
8580;SDS011;4328;48.622;9.230;2022-09-09T05:52:45;5.77;;;1.60;;
8580;SDS011;4328;48.622;9.230;2022-09-09T05:55:14;3.23;;;1.10;;
8580;SDS011;4328;48.622;9.230;2022-09-09T05:57:41;1.20;;;1.20;;
8580;SDS011;4328;48.622;9.230;2022-09-09T06:00:08;2.27;;;0.93;;
8580;SDS011;4328;48.622;9.230;2022-09-09T06:02:35;4.47;;;1.27;;
8580;SDS011;4328;48.622;9.230;2022-09-09T06:05:04;3.23;;;1.30;;
8580;SDS011;4328;48.622;9.230;2022-09-09T06:07:31;3.53;;;1.20;;
8580;SDS011;4328;48.622;9.230;2022-09-09T06:09:58;2.00;;;1.17;;
8580;SDS011;4328;48.622;9.230;2022-09-09T06:12:26;2.50;;;1.17;;
8580;SDS011;4328;48.622;9.230;2022-09-09T06:14:53;6.53;;;1.33;;
8580;SDS011;4328;48.622;9.230;2022-09-09T06:17:19;2.30;;;1.10;;
8580;SDS011;4328;48.622;9.230;2022-09-09T06:19:46;1.33;;;1.13;;
8580;SDS011;4328;48.622;9.230;2022-09-09T06:22:12;3.00;;;1.30;;
8580;SDS011;4328;48.622;9.230;2022-09-09T06:24:39;2.10;;;1.40;;
8580;SDS011;4328;48.622;9.230;2022-09-09T06:27:05;7.50;;;1.30;;
8580;SDS011;4328;48.622;9.230;2022-09-09T06:29:34;1.83;;;1.00;;
8580;SDS011;4328;48.622;9.230;2022-09-09T06:32:00;1.83;;;1.17;;
8580;SDS011;4328;48.622;9.230;2022-09-09T06:34:28;4.23;;;1.20;;
8580;SDS011;4328;48.622;9.230;2022-09-09T06:36:55;2.77;;;1.10;;
8580;SDS011;4328;48.622;9.230;2022-09-09T06:39:22;1.80;;;1.07;;
8580;SDS011;4328;48.622;9.230;2022-09-09T06:41:49;1.83;;;1.00;;
8580;SDS011;4328;48.622;9.230;2022-09-09T06:44:18;3.63;;;1.00;;
8580;SDS011;4328;48.622;9.230;2022-09-09T06:46:46;2.73;;;1.30;;
8580;SDS011;4328;48.622;9.230;2022-09-09T06:49:13;1.43;;;0.80;;
8580;SDS011;4328;48.622;9.230;2022-09-09T06:51:40;4.10;;;1.30;;
8580;SDS011;4328;48.622;9.230;2022-09-09T06:54:08;5.27;;;1.30;;
8580;SDS011;4328;48.622;9.230;2022-09-09T06:56:35;2.03;;;1.20;;
8580;SDS011;4328;48.622;9.230;2022-09-09T06:59:05;3.07;;;1.20;;
8580;SDS011;4328;48.622;9.230;2022-09-09T07:01:35;2.50;;;1.50;;
8580;SDS011;4328;48.622;9.230;2022-09-09T07:04:04;2.67;;;0.90;;
8580;SDS011;4328;48.622;9.230;2022-09-09T07:06:33;2.20;;;1.10;;
8580;SDS011;4328;48.622;9.230;2022-09-09T07:09:02;1.80;;;0.90;;
8580;SDS011;4328;48.622;9.230;2022-09-09T07:11:30;3.50;;;1.10;;
8580;SDS011;4328;48.622;9.230;2022-09-09T07:13:59;1.37;;;0.80;;
8580;SDS011;4328;48.622;9.230;2022-09-09T07:16:27;1.80;;;1.00;;
8580;SDS011;4328;48.622;9.230;2022-09-09T07:18:54;2.63;;;1.10;;
8580;SDS011;4328;48.622;9.230;2022-09-09T07:21:24;4.23;;;1.13;;
8580;SDS011;4328;48.622;9.230;2022-09-09T07:23:52;3.60;;;1.10;;
8580;SDS011;4328;48.622;9.230;2022-09-09T07:26:20;8.45;;;1.30;;
8580;SDS011;4328;48.622;9.230;2022-09-09T07:28:48;3.95;;;1.52;;
8580;SDS011;4328;48.622;9.230;2022-09-09T07:31:16;2.53;;;1.25;;
8580;SDS011;4328;48.622;9.230;2022-09-09T07:33:44;3.13;;;0.95;;
8580;SDS011;4328;48.622;9.230;2022-09-09T07:36:12;1.88;;;1.08;;
8580;SDS011;4328;48.622;9.230;2022-09-09T07:38:42;1.35;;;0.90;;
8580;SDS011;4328;48.622;9.230;2022-09-09T07:41:11;1.27;;;0.90;;
8580;SDS011;4328;48.622;9.230;2022-09-09T07:43:40;3.60;;;1.27;;
8580;SDS011;4328;48.622;9.230;2022-09-09T07:46:07;3.60;;;1.17;;
8580;SDS011;4328;48.622;9.230;2022-09-09T07:48:35;1.23;;;0.93;;
8580;SDS011;4328;48.622;9.230;2022-09-09T07:51:03;0.77;;;0.73;;
8580;SDS011;4328;48.622;9.230;2022-09-09T07:53:32;2.58;;;0.90;;
8580;SDS011;4328;48.622;9.230;2022-09-09T07:56:03;1.13;;;0.90;;
8580;SDS011;4328;48.622;9.230;2022-09-09T07:58:31;2.10;;;1.10;;
8580;SDS011;4328;48.622;9.230;2022-09-09T08:00:57;0.90;;;0.70;;
8580;SDS011;4328;48.622;9.230;2022-09-09T08:03:24;2.88;;;0.90;;
8580;SDS011;4328;48.622;9.230;2022-09-09T08:05:51;2.72;;;1.00;;
8580;SDS011;4328;48.622;9.230;2022-09-09T08:08:18;1.65;;;0.88;;
8580;SDS011;4328;48.622;9.230;2022-09-09T08:10:44;0.70;;;0.70;;
8580;SDS011;4328;48.622;9.230;2022-09-09T08:13:12;3.65;;;1.10;;
8580;SDS011;4328;48.622;9.230;2022-09-09T08:15:39;1.98;;;0.88;;
8580;SDS011;4328;48.622;9.230;2022-09-09T08:18:07;1.70;;;0.90;;
8580;SDS011;4328;48.622;9.230;2022-09-09T08:20:35;1.40;;;0.95;;
8580;SDS011;4328;48.622;9.230;2022-09-09T08:23:02;1.17;;;0.80;;
8580;SDS011;4328;48.622;9.230;2022-09-09T08:25:29;1.05;;;0.95;;
8580;SDS011;4328;48.622;9.230;2022-09-09T08:27:56;3.33;;;0.90;;
8580;SDS011;4328;48.622;9.230;2022-09-09T08:30:24;1.95;;;1.05;;
8580;SDS011;4328;48.622;9.230;2022-09-09T08:32:51;1.45;;;1.00;;
8580;SDS011;4328;48.622;9.230;2022-09-09T08:35:18;2.50;;;0.90;;
8580;SDS011;4328;48.622;9.230;2022-09-09T08:37:45;3.10;;;0.90;;
8580;SDS011;4328;48.622;9.230;2022-09-09T08:40:12;2.10;;;0.90;;
8580;SDS011;4328;48.622;9.230;2022-09-09T08:42:46;1.15;;;0.77;;
8580;SDS011;4328;48.622;9.230;2022-09-09T08:45:19;1.55;;;0.82;;
8580;SDS011;4328;48.622;9.230;2022-09-09T08:48:01;1.10;;;0.90;;
8580;SDS011;4328;48.622;9.230;2022-09-09T08:50:40;1.40;;;0.98;;
8580;SDS011;4328;48.622;9.230;2022-09-09T08:53:10;1.45;;;0.95;;
8580;SDS011;4328;48.622;9.230;2022-09-09T08:55:42;1.20;;;0.73;;
8580;SDS011;4328;48.622;9.230;2022-09-09T08:58:14;2.55;;;0.93;;
8580;SDS011;4328;48.622;9.230;2022-09-09T09:00:47;1.10;;;0.90;;
8580;SDS011;4328;48.622;9.230;2022-09-09T09:03:28;2.53;;;1.00;;
8580;SDS011;4328;48.622;9.230;2022-09-09T09:06:04;4.07;;;1.17;;
8580;SDS011;4328;48.622;9.230;2022-09-09T09:08:42;2.05;;;1.02;;
8580;SDS011;4328;48.622;9.230;2022-09-09T09:11:14;2.33;;;1.02;;
8580;SDS011;4328;48.622;9.230;2022-09-09T09:13:43;2.35;;;0.88;;
8580;SDS011;4328;48.622;9.230;2022-09-09T09:16:19;2.72;;;1.10;;
8580;SDS011;4328;48.622;9.230;2022-09-09T09:18:52;1.15;;;0.90;;
8580;SDS011;4328;48.622;9.230;2022-09-09T09:21:21;2.13;;;0.85;;
8580;SDS011;4328;48.622;9.230;2022-09-09T09:23:56;1.77;;;1.00;;
8580;SDS011;4328;48.622;9.230;2022-09-09T09:26:23;3.25;;;1.13;;
8580;SDS011;4328;48.622;9.230;2022-09-09T09:28:56;3.20;;;1.10;;
8580;SDS011;4328;48.622;9.230;2022-09-09T09:31:25;1.50;;;1.10;;
8580;SDS011;4328;48.622;9.230;2022-09-09T09:33:54;3.85;;;1.10;;
8580;SDS011;4328;48.622;9.230;2022-09-09T09:36:24;4.05;;;1.00;;
8580;SDS011;4328;48.622;9.230;2022-09-09T09:38:59;1.73;;;1.00;;
8580;SDS011;4328;48.622;9.230;2022-09-09T09:41:31;2.80;;;1.02;;
8580;SDS011;4328;48.622;9.230;2022-09-09T09:44:00;2.38;;;1.10;;
8580;SDS011;4328;48.622;9.230;2022-09-09T09:46:27;1.85;;;1.00;;
8580;SDS011;4328;48.622;9.230;2022-09-09T09:48:59;2.55;;;0.88;;
8580;SDS011;4328;48.622;9.230;2022-09-09T09:51:27;2.13;;;1.00;;
8580;SDS011;4328;48.622;9.230;2022-09-09T09:54:02;1.90;;;0.80;;
8580;SDS011;4328;48.622;9.230;2022-09-09T09:56:34;3.65;;;1.20;;
8580;SDS011;4328;48.622;9.230;2022-09-09T09:59:02;1.52;;;1.00;;
8580;SDS011;4328;48.622;9.230;2022-09-09T10:01:29;2.15;;;0.85;;
8580;SDS011;4328;48.622;9.230;2022-09-09T10:04:00;2.85;;;0.98;;
8580;SDS011;4328;48.622;9.230;2022-09-09T10:06:32;0.95;;;0.70;;
8580;SDS011;4328;48.622;9.230;2022-09-09T10:09:00;2.00;;;1.00;;
8580;SDS011;4328;48.622;9.230;2022-09-09T10:11:41;1.88;;;1.00;;
8580;SDS011;4328;48.622;9.230;2022-09-09T10:14:15;1.27;;;0.80;;
8580;SDS011;4328;48.622;9.230;2022-09-09T10:16:50;1.20;;;0.70;;
8580;SDS011;4328;48.622;9.230;2022-09-09T10:19:29;1.23;;;0.60;;
8580;SDS011;4328;48.622;9.230;2022-09-09T10:22:01;1.33;;;0.80;;
8580;SDS011;4328;48.622;9.230;2022-09-09T10:24:45;3.13;;;1.02;;
8580;SDS011;4328;48.622;9.230;2022-09-09T10:27:37;1.10;;;0.73;;
8580;SDS011;4328;48.622;9.230;2022-09-09T10:30:16;2.40;;;0.80;;
8580;SDS011;4328;48.622;9.230;2022-09-09T10:32:48;1.55;;;0.80;;
8580;SDS011;4328;48.622;9.230;2022-09-09T10:35:23;3.15;;;1.25;;
8580;SDS011;4328;48.622;9.230;2022-09-09T10:38:05;2.50;;;0.90;;
8580;SDS011;4328;48.622;9.230;2022-09-09T10:40:42;2.20;;;0.80;;
8580;SDS011;4328;48.622;9.230;2022-09-09T10:43:18;1.83;;;0.90;;
8580;SDS011;4328;48.622;9.230;2022-09-09T10:45:55;1.95;;;0.80;;
8580;SDS011;4328;48.622;9.230;2022-09-09T10:48:31;1.50;;;0.65;;
8580;SDS011;4328;48.622;9.230;2022-09-09T10:51:13;1.98;;;0.80;;
8580;SDS011;4328;48.622;9.230;2022-09-09T10:53:52;3.57;;;0.90;;
8580;SDS011;4328;48.622;9.230;2022-09-09T10:56:28;1.35;;;0.68;;
8580;SDS011;4328;48.622;9.230;2022-09-09T10:58:56;2.07;;;0.83;;
8580;SDS011;4328;48.622;9.230;2022-09-09T11:01:27;1.53;;;0.80;;
8580;SDS011;4328;48.622;9.230;2022-09-09T11:03:58;2.30;;;0.73;;
8580;SDS011;4328;48.622;9.230;2022-09-09T11:06:31;2.67;;;0.70;;
8580;SDS011;4328;48.622;9.230;2022-09-09T11:09:04;2.00;;;0.63;;
8580;SDS011;4328;48.622;9.230;2022-09-09T11:11:33;3.67;;;0.73;;
8580;SDS011;4328;48.622;9.230;2022-09-09T11:14:07;1.00;;;0.90;;
8580;SDS011;4328;48.622;9.230;2022-09-09T11:16:41;2.00;;;0.90;;
8580;SDS011;4328;48.622;9.230;2022-09-09T11:19:16;2.53;;;0.97;;
8580;SDS011;4328;48.622;9.230;2022-09-09T11:21:48;1.70;;;0.80;;
8580;SDS011;4328;48.622;9.230;2022-09-09T11:24:18;1.03;;;0.63;;
8580;SDS011;4328;48.622;9.230;2022-09-09T11:26:51;0.70;;;0.53;;
8580;SDS011;4328;48.622;9.230;2022-09-09T11:35:44;2.93;;;1.07;;
8580;SDS011;4328;48.622;9.230;2022-09-09T11:38:21;3.43;;;1.30;;
8580;SDS011;4328;48.622;9.230;2022-09-09T11:40:55;4.43;;;1.10;;
8580;SDS011;4328;48.622;9.230;2022-09-09T11:43:27;3.07;;;1.00;;
8580;SDS011;4328;48.622;9.230;2022-09-09T11:45:57;2.40;;;1.20;;
8580;SDS011;4328;48.622;9.230;2022-09-09T11:48:26;1.30;;;0.83;;
8580;SDS011;4328;48.622;9.230;2022-09-09T11:50:57;1.57;;;0.83;;
8580;SDS011;4328;48.622;9.230;2022-09-09T11:53:27;1.07;;;0.70;;
8580;SDS011;4328;48.622;9.230;2022-09-09T11:56:07;1.37;;;0.80;;
8580;SDS011;4328;48.622;9.230;2022-09-09T11:58:41;3.30;;;0.90;;
8580;SDS011;4328;48.622;9.230;2022-09-09T12:01:15;1.03;;;0.60;;
8580;SDS011;4328;48.622;9.230;2022-09-09T12:03:54;1.13;;;0.43;;
8580;SDS011;4328;48.622;9.230;2022-09-09T12:06:29;0.87;;;0.57;;
8580;SDS011;4328;48.622;9.230;2022-09-09T12:09:06;0.80;;;0.50;;
8580;SDS011;4328;48.622;9.230;2022-09-09T12:11:39;1.00;;;0.40;;
8580;SDS011;4328;48.622;9.230;2022-09-09T12:14:18;1.73;;;0.53;;
8580;SDS011;4328;48.622;9.230;2022-09-09T12:16:47;0.30;;;0.30;;
8580;SDS011;4328;48.622;9.230;2022-09-09T12:19:15;1.63;;;0.40;;
8580;SDS011;4328;48.622;9.230;2022-09-09T12:21:47;1.53;;;0.40;;
8580;SDS011;4328;48.622;9.230;2022-09-09T12:24:23;0.50;;;0.30;;
8580;SDS011;4328;48.622;9.230;2022-09-09T12:26:58;0.60;;;0.33;;
8580;SDS011;4328;48.622;9.230;2022-09-09T12:29:33;1.67;;;0.37;;
8580;SDS011;4328;48.622;9.230;2022-09-09T12:32:11;1.27;;;0.53;;
8580;SDS011;4328;48.622;9.230;2022-09-09T12:34:42;0.90;;;0.60;;
8580;SDS011;4328;48.622;9.230;2022-09-09T12:37:18;0.77;;;0.57;;
8580;SDS011;4328;48.622;9.230;2022-09-09T12:39:55;1.27;;;0.60;;
8580;SDS011;4328;48.622;9.230;2022-09-09T12:42:23;1.17;;;0.70;;
8580;SDS011;4328;48.622;9.230;2022-09-09T12:44:54;1.30;;;0.50;;
8580;SDS011;4328;48.622;9.230;2022-09-09T12:47:24;1.93;;;0.50;;
8580;SDS011;4328;48.622;9.230;2022-09-09T12:49:55;0.53;;;0.40;;
8580;SDS011;4328;48.622;9.230;2022-09-09T12:52:23;0.67;;;0.50;;
8580;SDS011;4328;48.622;9.230;2022-09-09T12:54:56;2.10;;;0.70;;
8580;SDS011;4328;48.622;9.230;2022-09-09T12:57:24;2.57;;;0.90;;
8580;SDS011;4328;48.622;9.230;2022-09-09T13:00:03;1.53;;;0.70;;
8580;SDS011;4328;48.622;9.230;2022-09-09T13:02:33;2.07;;;0.80;;
8580;SDS011;4328;48.622;9.230;2022-09-09T13:05:06;2.40;;;0.80;;
8580;SDS011;4328;48.622;9.230;2022-09-09T13:07:39;1.57;;;0.53;;
8580;SDS011;4328;48.622;9.230;2022-09-09T13:10:10;2.50;;;0.63;;
8580;SDS011;4328;48.622;9.230;2022-09-09T13:12:37;0.70;;;0.70;;
8580;SDS011;4328;48.622;9.230;2022-09-09T13:15:05;2.53;;;0.63;;
8580;SDS011;4328;48.622;9.230;2022-09-09T13:17:48;2.07;;;0.90;;
8580;SDS011;4328;48.622;9.230;2022-09-09T13:20:17;0.80;;;0.50;;
8580;SDS011;4328;48.622;9.230;2022-09-09T13:22:46;1.33;;;0.73;;
8580;SDS011;4328;48.622;9.230;2022-09-09T13:25:19;1.50;;;0.50;;
8580;SDS011;4328;48.622;9.230;2022-09-09T13:27:58;2.07;;;0.70;;
8580;SDS011;4328;48.622;9.230;2022-09-09T13:30:28;1.40;;;0.60;;
8580;SDS011;4328;48.622;9.230;2022-09-09T13:33:03;2.30;;;0.80;;
8580;SDS011;4328;48.622;9.230;2022-09-09T13:35:32;1.77;;;0.77;;
8580;SDS011;4328;48.622;9.230;2022-09-09T13:38:06;0.60;;;0.50;;
8580;SDS011;4328;48.622;9.230;2022-09-09T13:40:35;1.47;;;0.67;;
8580;SDS011;4328;48.622;9.230;2022-09-09T13:43:03;1.67;;;0.63;;
8580;SDS011;4328;48.622;9.230;2022-09-09T13:45:30;1.37;;;0.60;;
8580;SDS011;4328;48.622;9.230;2022-09-09T13:47:59;1.20;;;0.57;;
8580;SDS011;4328;48.622;9.230;2022-09-09T13:50:35;1.77;;;0.80;;
8580;SDS011;4328;48.622;9.230;2022-09-09T13:53:02;1.87;;;0.67;;
8580;SDS011;4328;48.622;9.230;2022-09-09T13:55:29;1.90;;;0.57;;
8580;SDS011;4328;48.622;9.230;2022-09-09T13:57:58;3.50;;;0.80;;
8580;SDS011;4328;48.622;9.230;2022-09-09T14:00:28;1.13;;;0.50;;
8580;SDS011;4328;48.622;9.230;2022-09-09T14:02:56;1.80;;;0.70;;
8580;SDS011;4328;48.622;9.230;2022-09-09T14:05:23;1.80;;;0.80;;
8580;SDS011;4328;48.622;9.230;2022-09-09T14:07:50;1.43;;;0.77;;
8580;SDS011;4328;48.622;9.230;2022-09-09T14:10:16;1.13;;;0.40;;
8580;SDS011;4328;48.622;9.230;2022-09-09T14:12:43;2.27;;;0.77;;
8580;SDS011;4328;48.622;9.230;2022-09-09T14:15:13;2.30;;;0.50;;
8580;SDS011;4328;48.622;9.230;2022-09-09T14:17:40;0.70;;;0.50;;
8580;SDS011;4328;48.622;9.230;2022-09-09T14:20:07;1.37;;;0.43;;
8580;SDS011;4328;48.622;9.230;2022-09-09T14:22:35;0.60;;;0.53;;
8580;SDS011;4328;48.622;9.230;2022-09-09T14:25:04;3.40;;;0.50;;
8580;SDS011;4328;48.622;9.230;2022-09-09T14:27:31;0.47;;;0.40;;
8580;SDS011;4328;48.622;9.230;2022-09-09T14:29:58;0.50;;;0.50;;
8580;SDS011;4328;48.622;9.230;2022-09-09T14:32:27;0.83;;;0.50;;
8580;SDS011;4328;48.622;9.230;2022-09-09T14:34:54;2.10;;;0.77;;
8580;SDS011;4328;48.622;9.230;2022-09-09T14:37:20;1.27;;;0.63;;
8580;SDS011;4328;48.622;9.230;2022-09-09T14:39:47;1.20;;;0.50;;
8580;SDS011;4328;48.622;9.230;2022-09-09T14:42:15;0.60;;;0.50;;
8580;SDS011;4328;48.622;9.230;2022-09-09T14:44:42;0.60;;;0.43;;
8580;SDS011;4328;48.622;9.230;2022-09-09T14:47:09;1.73;;;0.50;;
8580;SDS011;4328;48.622;9.230;2022-09-09T14:49:37;1.23;;;0.73;;
8580;SDS011;4328;48.622;9.230;2022-09-09T14:52:04;0.90;;;0.50;;
8580;SDS011;4328;48.622;9.230;2022-09-09T14:54:31;0.77;;;0.50;;
8580;SDS011;4328;48.622;9.230;2022-09-09T14:56:58;2.53;;;0.50;;
8580;SDS011;4328;48.622;9.230;2022-09-09T14:59:25;2.50;;;0.73;;
8580;SDS011;4328;48.622;9.230;2022-09-09T15:01:51;0.67;;;0.47;;
8580;SDS011;4328;48.622;9.230;2022-09-09T15:04:18;1.10;;;0.60;;
8580;SDS011;4328;48.622;9.230;2022-09-09T15:06:46;1.00;;;0.37;;
8580;SDS011;4328;48.622;9.230;2022-09-09T15:09:15;0.60;;;0.30;;
8580;SDS011;4328;48.622;9.230;2022-09-09T15:11:41;0.73;;;0.57;;
8580;SDS011;4328;48.622;9.230;2022-09-09T15:14:09;1.23;;;0.50;;
8580;SDS011;4328;48.622;9.230;2022-09-09T15:16:37;2.00;;;0.70;;
8580;SDS011;4328;48.622;9.230;2022-09-09T15:19:04;2.23;;;0.70;;
8580;SDS011;4328;48.622;9.230;2022-09-09T15:21:31;1.10;;;0.60;;
8580;SDS011;4328;48.622;9.230;2022-09-09T15:24:01;1.20;;;0.60;;
8580;SDS011;4328;48.622;9.230;2022-09-09T15:26:29;1.70;;;0.63;;
8580;SDS011;4328;48.622;9.230;2022-09-09T15:28:56;1.23;;;0.60;;
8580;SDS011;4328;48.622;9.230;2022-09-09T15:31:25;0.90;;;0.57;;
8580;SDS011;4328;48.622;9.230;2022-09-09T15:33:53;1.10;;;0.60;;
8580;SDS011;4328;48.622;9.230;2022-09-09T15:36:26;1.23;;;0.60;;
8580;SDS011;4328;48.622;9.230;2022-09-09T15:38:53;2.50;;;0.60;;
8580;SDS011;4328;48.622;9.230;2022-09-09T15:41:22;1.20;;;0.50;;